createdAt,value
2022-10-10T00:03:21.064Z,100683.00
2022-10-10T00:08:20.977Z,100681.00
2022-10-10T00:13:21.031Z,100681.00
2022-10-10T00:18:21.142Z,100677.00
2022-10-10T00:23:21.011Z,100677.00
2022-10-10T00:28:21.082Z,100677.00
2022-10-10T00:33:21.071Z,100681.00
2022-10-10T00:38:20.998Z,100681.00
2022-10-10T00:43:21.031Z,100679.00
2022-10-10T00:48:21.045Z,100677.00
2022-10-10T00:53:21.005Z,100671.00
2022-10-10T00:58:20.981Z,100669.00
2022-10-10T01:03:21.090Z,100665.00
2022-10-10T01:08:21.138Z,100663.00
2022-10-10T01:13:21.005Z,100657.00
2022-10-10T01:18:21.093Z,100655.00
2022-10-10T01:23:21.062Z,100653.00
2022-10-10T01:28:21.136Z,100653.00
2022-10-10T01:33:20.996Z,100651.00
2022-10-10T01:38:20.989Z,100647.00
2022-10-10T01:43:21.018Z,100645.00
2022-10-10T01:48:21.145Z,100643.00
2022-10-10T01:53:21.032Z,100634.00
2022-10-10T01:58:21.049Z,100634.00
2022-10-10T02:03:21.022Z,100632.00
2022-10-10T02:08:21.045Z,100626.00
2022-10-10T02:13:21.083Z,100626.00
2022-10-10T02:18:21.088Z,100624.00
2022-10-10T02:23:24.125Z,100622.00
2022-10-10T02:28:24.239Z,100620.00
2022-10-10T02:33:24.168Z,100614.00
2022-10-10T02:38:24.184Z,100608.00
2022-10-10T02:43:24.137Z,100602.00
2022-10-10T02:48:24.657Z,100602.00
2022-10-10T02:53:24.130Z,100598.00
2022-10-10T02:58:24.151Z,100596.00
2022-10-10T03:03:25.282Z,100592.00
2022-10-10T03:08:25.171Z,100587.00
2022-10-10T03:13:25.182Z,100585.00
2022-10-10T03:18:25.175Z,100585.00
2022-10-10T03:23:25.097Z,100583.00
2022-10-10T03:28:25.263Z,100581.00
2022-10-10T03:33:25.112Z,100583.00
2022-10-10T03:38:25.176Z,100579.00
2022-10-10T03:43:25.192Z,100579.00
2022-10-10T03:48:25.237Z,100581.00
2022-10-10T03:53:25.157Z,100579.00
2022-10-10T03:58:25.201Z,100577.00
2022-10-10T04:03:25.101Z,100577.00
2022-10-10T04:08:25.229Z,100575.00
2022-10-10T04:13:26.962Z,100573.00
2022-10-10T04:18:27.250Z,100569.00
2022-10-10T04:23:27.123Z,100569.00
2022-10-10T04:28:27.176Z,100567.00
2022-10-10T04:33:27.117Z,100563.00
2022-10-10T04:38:27.199Z,100565.00
2022-10-10T04:43:27.145Z,100561.00
2022-10-10T04:48:27.205Z,100553.00
2022-10-10T04:53:27.141Z,100557.00
2022-10-10T04:58:27.289Z,100563.00
2022-10-10T05:03:27.202Z,100567.00
2022-10-10T05:08:27.240Z,100567.00
2022-10-10T05:13:27.155Z,100565.00
2022-10-10T05:18:27.278Z,100565.00
2022-10-10T05:23:27.248Z,100567.00
2022-10-10T05:28:27.343Z,100569.00
2022-10-10T05:33:27.191Z,100569.00
2022-10-10T05:38:27.239Z,100569.00
2022-10-10T05:43:27.255Z,100565.00
2022-10-10T05:48:27.222Z,100563.00
2022-10-10T05:53:27.252Z,100567.00
2022-10-10T05:58:27.386Z,100567.00
2022-10-10T06:03:27.192Z,100565.00
2022-10-10T06:08:27.241Z,100571.00
2022-10-10T06:13:27.303Z,100569.00
2022-10-10T06:18:27.216Z,100567.00
2022-10-10T06:23:28.617Z,100573.00
2022-10-10T06:28:28.424Z,100575.00
2022-10-10T06:33:28.254Z,100581.00
2022-10-10T06:38:28.300Z,100585.00
2022-10-10T06:43:28.265Z,100590.00
2022-10-10T06:48:29.537Z,100590.00
2022-10-10T06:53:29.291Z,100594.00
2022-10-10T06:58:29.261Z,100598.00
2022-10-10T07:03:29.213Z,100604.00
2022-10-10T07:08:29.330Z,100604.00
2022-10-10T07:13:29.742Z,100604.00
2022-10-10T07:18:29.281Z,100602.00
2022-10-10T07:23:30.931Z,100606.00
2022-10-10T07:28:31.307Z,100610.00
2022-10-10T07:33:31.359Z,100614.00
2022-10-10T07:38:31.283Z,100618.00
2022-10-10T07:43:31.300Z,100624.00
2022-10-10T07:48:31.268Z,100624.00
2022-10-10T07:53:31.358Z,100626.00
2022-10-10T07:58:31.417Z,100622.00
2022-10-10T08:03:31.341Z,100624.00
2022-10-10T08:08:34.131Z,100622.00
2022-10-10T08:13:33.394Z,100626.00
2022-10-10T08:18:33.300Z,100622.00
2022-10-10T08:23:33.441Z,100624.00
2022-10-10T08:28:36.528Z,100624.00
2022-10-10T08:33:36.297Z,100622.00
2022-10-10T08:38:36.548Z,100620.00
2022-10-10T08:43:36.446Z,100626.00
2022-10-10T08:48:36.433Z,100626.00
2022-10-10T08:53:36.909Z,100634.00
2022-10-10T08:58:36.633Z,100636.00
2022-10-10T09:03:36.894Z,100637.00
2022-10-10T09:08:36.320Z,100637.00
2022-10-10T09:13:36.387Z,100634.00
2022-10-10T09:18:36.424Z,100634.00
2022-10-10T09:23:36.468Z,100636.00
2022-10-10T09:28:36.566Z,100637.00
2022-10-10T09:33:36.364Z,100634.00
2022-10-10T09:38:36.425Z,100626.00
2022-10-10T09:43:36.353Z,100622.00
2022-10-10T09:48:36.365Z,100614.00
2022-10-10T09:53:36.334Z,100612.00
2022-10-10T09:58:36.436Z,100612.00
2022-10-10T10:03:36.400Z,100618.00
2022-10-10T10:08:36.460Z,100616.00
2022-10-10T10:13:36.363Z,100616.00
2022-10-10T10:18:36.410Z,100620.00
2022-10-10T10:23:36.455Z,100624.00
2022-10-10T10:28:36.541Z,100622.00
2022-10-10T10:33:37.116Z,100626.00
2022-10-10T10:38:37.415Z,100628.00
2022-10-10T10:43:37.491Z,100630.00
2022-10-10T10:48:37.447Z,100634.00
2022-10-10T10:53:37.482Z,100637.00
2022-10-10T10:59:05.764Z,100639.00
2022-10-10T11:05:17.265Z,100643.00
2022-10-10T11:08:41.458Z,100641.00
2022-10-10T11:13:41.514Z,100641.00
2022-10-10T11:18:41.460Z,100643.00
2022-10-10T11:23:41.483Z,100641.00
2022-10-10T11:28:43.198Z,100643.00
2022-10-10T11:33:43.690Z,100641.00
2022-10-10T11:38:44.285Z,100636.00
2022-10-10T11:43:44.457Z,100634.00
2022-10-10T11:48:44.529Z,100636.00
2022-10-10T11:53:44.526Z,100634.00
2022-10-10T11:58:44.492Z,100634.00
2022-10-10T12:03:44.598Z,100634.00
2022-10-10T12:08:44.551Z,100630.00
2022-10-10T12:13:44.484Z,100626.00
2022-10-10T12:18:44.575Z,100636.00
2022-10-10T12:23:46.441Z,100636.00
2022-10-10T12:28:46.523Z,100634.00
2022-10-10T12:33:46.657Z,100634.00
2022-10-10T12:38:46.527Z,100630.00
2022-10-10T12:43:46.559Z,100628.00
2022-10-10T12:48:46.472Z,100624.00
2022-10-10T12:53:46.473Z,100622.00
2022-10-10T12:58:46.540Z,100622.00
2022-10-10T13:03:46.604Z,100622.00
2022-10-10T13:08:46.513Z,100620.00
2022-10-10T13:13:46.549Z,100614.00
2022-10-10T13:18:46.618Z,100606.00
2022-10-10T13:28:48.728Z,100608.00
2022-10-10T13:33:48.531Z,100610.00
2022-10-10T13:38:48.804Z,100608.00
2022-10-10T13:43:48.527Z,100616.00
2022-10-10T13:48:50.031Z,100622.00
2022-10-10T13:53:49.621Z,100624.00
2022-10-10T13:58:49.532Z,100630.00
2022-10-10T14:03:49.631Z,100634.00
2022-10-10T14:08:49.748Z,100637.00
2022-10-10T14:13:49.646Z,100639.00
2022-10-10T14:18:49.554Z,100634.00
2022-10-10T14:23:49.555Z,100637.00
2022-10-10T14:28:49.680Z,100645.00
2022-10-10T14:33:49.582Z,100649.00
2022-10-10T14:38:49.646Z,100657.00
2022-10-10T14:43:49.549Z,100663.00
2022-10-10T14:48:49.658Z,100665.00
2022-10-10T14:54:09.851Z,100677.00
2022-10-10T14:58:51.602Z,100683.00
2022-10-10T15:03:51.645Z,100694.00
2022-10-10T15:08:51.686Z,100704.00
2022-10-10T15:13:51.668Z,100714.00
2022-10-10T15:18:54.480Z,100718.00
2022-10-10T15:23:53.625Z,100726.00
2022-10-10T15:28:54.136Z,100731.00
2022-10-10T15:33:54.960Z,100741.00
2022-10-10T15:38:55.054Z,100753.00
2022-10-10T15:43:54.995Z,100759.00
2022-10-10T15:48:54.769Z,100769.00
2022-10-10T15:53:54.628Z,100777.00
2022-10-10T15:58:54.703Z,100788.00
2022-10-10T16:03:54.623Z,100788.00
2022-10-10T16:09:09.941Z,100807.00
2022-10-10T16:13:56.929Z,100817.00
2022-10-10T16:18:56.695Z,100824.00
2022-10-10T16:23:58.118Z,100838.00
2022-10-10T16:28:58.712Z,100848.00
2022-10-10T16:33:58.712Z,100856.00
2022-10-10T16:38:58.682Z,100869.00
2022-10-10T16:43:58.822Z,100873.00
2022-10-10T16:48:58.933Z,100885.00
2022-10-10T16:53:58.700Z,100889.00
2022-10-10T16:58:58.986Z,100897.00
2022-10-10T17:04:02.032Z,100905.00
2022-10-10T17:09:02.252Z,100917.00
2022-10-10T17:14:01.852Z,100920.00
2022-10-10T17:19:02.697Z,100934.00
2022-10-10T17:24:02.782Z,100948.00
2022-10-10T17:29:02.851Z,100962.00
2022-10-10T17:34:02.736Z,100971.00
2022-10-10T17:39:03.304Z,100981.00
2022-10-10T17:44:04.248Z,100995.00
2022-10-10T17:49:03.731Z,101007.00
2022-10-10T17:54:03.806Z,101014.00
2022-10-10T17:59:05.604Z,101026.00
2022-10-10T18:04:06.275Z,101040.00
2022-10-10T18:09:06.897Z,101050.00
2022-10-10T18:14:06.783Z,101068.00
2022-10-10T18:19:07.034Z,101080.00
2022-10-10T18:24:06.747Z,101096.00
2022-10-10T18:29:06.806Z,101109.00
2022-10-10T18:34:06.736Z,101117.00
2022-10-10T18:39:06.827Z,101125.00
2022-10-10T18:44:06.841Z,101131.00
2022-10-10T18:49:08.641Z,101141.00
2022-10-10T18:54:09.078Z,101152.00
2022-10-10T18:59:08.776Z,101160.00
2022-10-10T19:04:08.807Z,101166.00
2022-10-10T19:09:09.259Z,101172.00
2022-10-10T19:14:08.829Z,101178.00
2022-10-10T19:19:08.852Z,101180.00
2022-10-10T19:24:08.872Z,101191.00
2022-10-10T19:29:08.806Z,101201.00
2022-10-10T19:34:08.856Z,101203.00
2022-10-10T19:39:08.891Z,101213.00
2022-10-10T19:44:08.965Z,101221.00
2022-10-10T19:49:08.921Z,101233.00
2022-10-10T19:54:08.862Z,101240.00
2022-10-10T19:59:08.938Z,101248.00
2022-10-10T20:04:08.832Z,101254.00
2022-10-10T20:09:11.013Z,101260.00
2022-10-10T20:14:11.220Z,101270.00
2022-10-10T20:19:10.900Z,101274.00
2022-10-10T20:24:10.836Z,101284.00
2022-10-10T20:29:10.894Z,101293.00
2022-10-10T20:34:10.894Z,101305.00
2022-10-10T20:39:10.803Z,101318.00
2022-10-10T20:44:10.907Z,101328.00
2022-10-10T20:49:10.900Z,101335.00
2022-10-10T20:54:10.931Z,101345.00
2022-10-10T20:59:10.877Z,101351.00
2022-10-10T21:04:11.007Z,101355.00
2022-10-10T21:09:10.860Z,101361.00
2022-10-10T21:14:11.106Z,101371.00
2022-10-10T21:19:10.862Z,101377.00
2022-10-10T21:24:10.976Z,101384.00
2022-10-10T21:29:10.839Z,101390.00
2022-10-10T21:34:12.820Z,101396.00
2022-10-10T21:39:12.949Z,101404.00
2022-10-10T21:44:13.023Z,101408.00
2022-10-10T21:49:13.015Z,101410.00
2022-10-10T21:54:12.889Z,101416.00
2022-10-10T21:59:12.931Z,101420.00
2022-10-10T22:04:12.867Z,101425.00
2022-10-10T22:09:12.984Z,101425.00
2022-10-10T22:14:12.943Z,101431.00
2022-10-10T22:19:12.965Z,101429.00
2022-10-10T22:24:12.855Z,101433.00
2022-10-10T22:29:12.932Z,101437.00
2022-10-10T22:34:12.979Z,101441.00
2022-10-10T22:39:14.405Z,101443.00
2022-10-10T22:44:15.533Z,101445.00
2022-10-10T22:49:16.092Z,101451.00
2022-10-10T22:54:15.974Z,101453.00
2022-10-10T22:59:15.911Z,101459.00
2022-10-10T23:04:15.960Z,101459.00
2022-10-10T23:09:15.989Z,101463.00
2022-10-10T23:14:16.017Z,101471.00
2022-10-10T23:19:15.959Z,101476.00
2022-10-10T23:24:15.907Z,101480.00
2022-10-10T23:29:16.033Z,101482.00
2022-10-10T23:34:15.956Z,101484.00
2022-10-10T23:39:16.094Z,101486.00
2022-10-10T23:44:15.936Z,101488.00
2022-10-10T23:49:16.011Z,101490.00
2022-10-10T23:54:15.997Z,101492.00
2022-10-10T23:59:15.919Z,101494.00
